Time,TemperatureF,DewpointF,PressureIn,WindDirection,WindDirectionDegrees,WindSpeedMPH,WindSpeedGustMPH,Humidity,HourlyPrecipIn,Conditions,Clouds,dailyrainin,SoftwareType,DateUTC
2013-10-05 00:14:00,63.0,63.0,-100.00,East,79,5.0,-999.0,100,-99.99,,,-99.99,,2013-10-05 04:14:00,
2013-10-05 00:24:00,62.0,62.0,-100.00,ENE,61,4.0,-999.0,100,-99.99,,,-99.99,,2013-10-05 04:24:00,
2013-10-05 00:44:00,62.0,62.0,-100.00,North,0,0.0,-999.0,100,-99.99,,,-99.99,,2013-10-05 04:44:00,
2013-10-05 01:13:00,61.0,61.0,-100.00,NE,45,1.0,-999.0,100,-99.99,,,-99.99,,2013-10-05 05:13:00,
2013-10-05 01:43:00,60.0,60.0,-100.00,ENE,65,4.0,-999.0,100,-99.99,,,-99.99,,2013-10-05 05:43:00,
2013-10-05 01:52:00,60.0,60.0,-100.00,North,0,0.0,-999.0,100,-99.99,,,-99.99,,2013-10-05 05:52:00,
2013-10-05 02:02:00,60.0,60.0,-100.00,North,0,0.0,-999.0,100,-99.99,,,-99.99,,2013-10-05 06:02:00,
2013-10-05 02:22:00,61.0,61.0,-100.00,North,0,0.0,-999.0,100,-99.99,,,-99.99,,2013-10-05 06:22:00,
2013-10-05 02:43:00,61.0,61.0,-100.00,North,0,0.0,-999.0,100,-99.99,,,-99.99,,2013-10-05 06:43:00,
2013-10-05 02:52:00,61.0,61.0,-100.00,North,0,0.0,-999.0,100,-99.99,,,-99.99,,2013-10-05 06:52:00,
2013-10-05 03:12:00,61.0,61.0,-100.00,North,0,0.0,-999.0,100,-99.99,,,-99.99,,2013-10-05 07:12:00,
2013-10-05 03:42:00,61.0,61.0,-100.00,North,0,0.0,-999.0,100,-99.99,,,-99.99,,2013-10-05 07:42:00,
2013-10-05 03:52:00,61.0,61.0,-100.00,North,0,0.0,-999.0,100,-99.99,,,-99.99,,2013-10-05 07:52:00,
2013-10-05 04:02:00,61.0,61.0,-100.00,North,0,0.0,-999.0,100,-99.99,,,-99.99,,2013-10-05 08:02:00,
2013-10-05 04:42:00,60.0,60.0,-100.00,North,4,0.0,-999.0,100,-99.99,,,-99.99,,2013-10-05 08:42:00,
2013-10-05 04:52:00,60.0,60.0,-100.00,North,0,0.0,-999.0,100,-99.99,,,-99.99,,2013-10-05 08:52:00,
2013-10-05 05:12:00,61.0,61.0,-100.00,South,176,7.0,-999.0,100,-99.99,,,-99.99,,2013-10-05 09:12:00,
2013-10-05 05:22:00,61.0,61.0,-100.00,South,176,7.0,-999.0,100,-99.99,,,-99.99,,2013-10-05 09:22:00,
2013-10-05 05:43:00,60.0,60.0,-100.00,North,0,0.0,-999.0,100,-99.99,,,-99.99,,2013-10-05 09:43:00,
2013-10-05 05:54:00,60.0,60.0,-100.00,NE,51,3.0,-999.0,100,-99.99,,,-99.99,,2013-10-05 09:54:00,
2013-10-05 06:04:00,60.0,60.0,-100.00,NE,51,3.0,-999.0,100,-99.99,,,-99.99,,2013-10-05 10:04:00,
2013-10-05 06:23:00,60.0,60.0,-100.00,North,0,0.0,-999.0,100,-99.99,,,-99.99,,2013-10-05 10:23:00,
2013-10-05 06:43:00,60.0,60.0,-100.00,North,0,0.0,-999.0,100,-99.99,,,-99.99,,2013-10-05 10:43:00,
2013-10-05 07:22:00,60.0,60.0,-100.00,North,0,0.0,-999.0,100,-99.99,,,-99.99,,2013-10-05 11:22:00,
2013-10-05 07:43:00,60.0,60.0,-100.00,North,0,0.0,-999.0,100,-99.99,,,-99.99,,2013-10-05 11:43:00,
2013-10-05 08:22:00,60.0,60.0,-100.00,NNE,30,1.0,-999.0,100,-99.99,,,-99.99,,2013-10-05 12:22:00,
2013-10-05 08:42:00,60.0,60.0,-100.00,NNE,13,1.0,-999.0,100,-99.99,,,-99.99,,2013-10-05 12:42:00,
2013-10-05 09:22:00,60.0,60.0,-100.00,ENE,77,3.0,-999.0,100,-99.99,,,-99.99,,2013-10-05 13:22:00,
2013-10-05 09:42:00,59.0,59.0,-100.00,East,88,4.0,-999.0,100,-99.99,,,-99.99,,2013-10-05 13:42:00,
2013-10-05 10:22:00,60.0,60.0,-100.00,North,0,0.0,-999.0,100,-99.99,,,-99.99,,2013-10-05 14:22:00,
2013-10-05 10:42:00,60.0,60.0,-100.00,North,0,0.0,-999.0,100,-99.99,,,-99.99,,2013-10-05 14:42:00,
2013-10-05 11:22:00,62.0,62.0,-100.00,North,0,0.0,-999.0,100,-99.99,,,-99.99,,2013-10-05 15:22:00,
2013-10-05 11:44:00,64.0,64.0,-100.00,North,0,0.0,-999.0,100,-99.99,,,-99.99,,2013-10-05 15:44:00,
2013-10-05 12:24:00,65.0,65.0,-100.00,South,187,6.0,-999.0,100,-99.99,,,-99.99,,2013-10-05 16:24:00,
2013-10-05 12:43:00,63.0,63.0,-100.00,ENE,65,3.0,-999.0,100,-99.99,,,-99.99,,2013-10-05 16:43:00,
2013-10-05 13:22:00,63.0,63.0,-100.00,ENE,60,7.0,-999.0,100,-99.99,,,-99.99,,2013-10-05 17:22:00,
2013-10-05 13:42:00,63.0,63.0,-100.00,ENE,66,6.0,-999.0,100,-99.99,,,-99.99,,2013-10-05 17:42:00,
2013-10-05 14:22:00,64.0,64.0,-100.00,ENE,71,7.0,-999.0,100,-99.99,,,-99.99,,2013-10-05 18:22:00,
2013-10-05 14:42:00,64.0,64.0,-100.00,NE,54,8.0,-999.0,100,-99.99,,,-99.99,,2013-10-05 18:42:00,
2013-10-05 15:22:00,65.0,65.0,-100.00,ENE,66,6.0,-999.0,100,-99.99,,,-99.99,,2013-10-05 19:22:00,
2013-10-05 15:42:00,64.0,64.0,-100.00,NE,53,7.0,-999.0,100,-99.99,,,-99.99,,2013-10-05 19:42:00,
2013-10-05 15:52:00,64.0,64.0,-100.00,ENE,61,6.0,-999.0,100,-99.99,,,-99.99,,2013-10-05 19:52:00,
2013-10-05 16:02:00,64.0,64.0,-100.00,ENE,61,6.0,-999.0,100,-99.99,,,-99.99,,2013-10-05 20:02:00,
2013-10-05 16:22:00,64.0,64.0,-100.00,NNE,24,8.0,-999.0,100,-99.99,,,-99.99,,2013-10-05 20:22:00,
2013-10-05 16:42:00,64.0,64.0,-100.00,ENE,63,6.0,-999.0,100,-99.99,,,-99.99,,2013-10-05 20:42:00,
2013-10-05 17:12:00,65.0,65.0,-100.00,SE,139,7.0,-999.0,99,-99.99,,,-99.99,,2013-10-05 21:12:00,
2013-10-05 17:22:00,64.0,64.0,-100.00,NE,55,10.0,-999.0,98,-99.99,,,-99.99,,2013-10-05 21:22:00,
2013-10-05 17:44:00,64.0,64.0,-100.00,ENE,67,8.0,-999.0,98,-99.99,,,-99.99,,2013-10-05 21:44:00,
2013-10-05 18:13:00,63.0,63.0,-100.00,East,80,10.0,-999.0,99,-99.99,,,-99.99,,2013-10-05 22:13:00,
2013-10-05 18:24:00,62.0,62.0,-100.00,ENE,61,6.0,-999.0,99,-99.99,,,-99.99,,2013-10-05 22:24:00,
2013-10-05 18:42:00,62.0,61.0,-100.00,NE,45,4.0,-999.0,99,-99.99,,,-99.99,,2013-10-05 22:42:00,
2013-10-05 19:13:00,61.0,61.0,-100.00,ENE,60,6.0,-999.0,99,-99.99,,,-99.99,,2013-10-05 23:13:00,
2013-10-05 19:22:00,61.0,61.0,-100.00,North,0,0.0,-999.0,100,-99.99,,,-99.99,,2013-10-05 23:22:00,
2013-10-05 19:43:00,60.0,60.0,-100.00,NE,36,4.0,-999.0,100,-99.99,,,-99.99,,2013-10-05 23:43:00,
2013-10-05 19:53:00,60.0,60.0,-100.00,SSW,213,5.0,-999.0,100,-99.99,,,-99.99,,2013-10-05 23:53:00,
2013-10-05 20:02:00,60.0,60.0,-100.00,SSW,213,5.0,-999.0,100,-99.99,,,-99.99,,2013-10-06 00:02:00,
2013-10-05 20:23:00,60.0,60.0,-100.00,NE,38,3.0,-999.0,100,-99.99,,,-99.99,,2013-10-06 00:23:00,
2013-10-05 20:43:00,60.0,60.0,-100.00,North,0,0.0,-999.0,100,-99.99,,,-99.99,,2013-10-06 00:43:00,
2013-10-05 20:52:00,60.0,60.0,-100.00,North,0,0.0,-999.0,100,-99.99,,,-99.99,,2013-10-06 00:52:00,
2013-10-05 21:02:00,60.0,60.0,-100.00,North,0,0.0,-999.0,100,-99.99,,,-99.99,,2013-10-06 01:02:00,
2013-10-05 21:22:00,60.0,60.0,-100.00,North,0,0.0,-999.0,100,-99.99,,,-99.99,,2013-10-06 01:22:00,
2013-10-05 21:42:00,60.0,60.0,-100.00,West,265,3.0,-999.0,100,-99.99,,,-99.99,,2013-10-06 01:42:00,
2013-10-05 21:52:00,60.0,60.0,-100.00,North,0,0.0,-999.0,100,-99.99,,,-99.99,,2013-10-06 01:52:00,
2013-10-05 22:12:00,60.0,60.0,-100.00,ENE,65,1.0,-999.0,100,-99.99,,,-99.99,,2013-10-06 02:12:00,
2013-10-05 22:42:00,60.0,60.0,-100.00,SSE,155,3.0,-999.0,100,-99.99,,,-99.99,,2013-10-06 02:42:00,
2013-10-05 22:53:00,60.0,60.0,-100.00,North,0,0.0,-999.0,100,-99.99,,,-99.99,,2013-10-06 02:53:00,
2013-10-05 23:02:00,60.0,60.0,-100.00,North,0,0.0,-999.0,100,-99.99,,,-99.99,,2013-10-06 03:02:00,
2013-10-05 23:22:00,60.0,60.0,-100.00,North,0,0.0,-999.0,100,-99.99,,,-99.99,,2013-10-06 03:22:00,
2013-10-05 23:44:00,60.0,60.0,-100.00,North,0,0.0,-999.0,100,-99.99,,,-99.99,,2013-10-06 03:44:00,
2013-10-05 23:54:00,60.0,60.0,-100.00,North,0,0.0,-999.0,100,-99.99,,,-99.99,,2013-10-06 03:54:00,